Huff, Kentucky
Current Conditions -  °F | °C
As of 11:53 PM on Saturday 22 Nov 2014 (Local Time) from KBWG Reporting Station
Clear Clear  
Wind Chill: 55°   Ceiling: Unl
Heat Index: 55°   Visibility: 10mi
Dew Point: 37°   Wind: 7mph
Humidity: 51%   Direction: 170°S
Pressure: 30.05"   Gusts: NA
Location:  37.2379°N, 86.3446°W
Report Text: KBWG 230553Z AUTO 17006KT 10SM CLR 13/03 A3005 RMK AO2 SLP174 T01280028 10139 20089 401830050 56014
Loading
Personal Weather Stations






























Interactive Weather Map New forecast layout! Learn more

10-Day Weather Forecast

Advertisements
Track Severe Weather on mobile